createdAt,value
2022-09-15T18:59:24.105Z,0.80
2022-09-15T19:00:28.918Z,0.90
2022-09-15T19:01:29.246Z,1.40
2022-09-15T19:02:29.225Z,1.40
2022-09-15T19:03:29.187Z,1.30
2022-09-15T19:04:32.696Z,1.20
2022-09-15T19:05:29.333Z,1.30
2022-09-15T19:06:29.376Z,1.30
2022-09-15T19:07:29.468Z,1.20
2022-09-15T19:08:29.526Z,1.60
2022-09-15T19:09:29.751Z,1.40
2022-09-15T19:10:29.674Z,1.50
2022-09-15T19:11:34.857Z,7.40
2022-09-15T19:12:34.788Z,3.30
2022-09-15T19:13:34.897Z,4.50
2022-09-15T19:14:35.090Z,11.10
2022-09-15T19:15:35.086Z,13.70
2022-09-15T19:17:35.216Z,15.00
2022-09-15T19:18:35.291Z,13.20
2022-09-15T19:19:35.469Z,14.00
2022-09-15T19:20:35.472Z,15.10
2022-09-15T19:21:35.507Z,14.90
2022-09-15T19:22:40.538Z,16.90
2022-09-15T19:23:40.709Z,15.80
2022-09-15T19:24:40.798Z,16.50
2022-09-15T19:25:45.785Z,16.10
2022-09-15T19:26:45.953Z,15.30
2022-09-15T19:27:46.017Z,14.50
2022-09-15T19:28:46.186Z,14.00
2022-09-15T19:29:46.322Z,15.00
2022-09-15T19:30:46.331Z,13.30
2022-09-15T19:31:46.334Z,13.60
2022-09-15T19:32:51.363Z,12.70
2022-09-15T19:33:51.527Z,12.90
2022-09-15T19:34:51.674Z,12.20
2022-09-15T19:36:04.945Z,11.80
2022-09-15T19:36:51.725Z,11.50
2022-09-15T19:37:51.803Z,10.90
2022-09-15T19:38:51.861Z,11.80
2022-09-15T19:39:52.115Z,13.00
2022-09-15T19:40:52.007Z,11.80
2022-09-15T19:41:52.130Z,11.90
2022-09-15T19:42:52.159Z,10.60
2022-09-15T19:43:52.402Z,12.30
2022-09-15T19:44:52.418Z,10.40
2022-09-15T19:45:52.410Z,10.90
2022-09-15T19:46:52.429Z,10.50
2022-09-15T19:47:52.507Z,12.00
2022-09-15T19:48:52.782Z,11.90
2022-09-15T19:49:52.779Z,11.30
2022-09-15T19:50:52.693Z,12.70
2022-09-15T19:51:52.784Z,11.30
2022-09-15T19:52:55.259Z,10.40
2022-09-15T19:53:53.091Z,10.70
2022-09-15T19:55:04.795Z,5.50
2022-09-15T19:56:05.365Z,7.00
2022-09-15T19:57:05.568Z,8.20
2022-09-15T19:58:05.714Z,7.90
2022-09-15T19:59:05.803Z,8.60
2022-09-15T20:00:06.077Z,8.50
2022-09-15T20:02:27.780Z,5.40
2022-09-15T20:03:28.338Z,7.20
2022-09-15T20:04:28.500Z,8.30
2022-09-15T20:05:28.702Z,7.30
2022-09-15T20:06:32.301Z,7.90
2022-09-15T20:07:28.738Z,7.70
2022-09-15T20:08:28.814Z,7.80
2022-09-15T20:09:28.917Z,8.80
2022-09-15T20:10:29.092Z,8.00
2022-09-15T20:11:29.087Z,8.60
2022-09-15T20:12:29.136Z,8.00
2022-09-15T20:13:29.235Z,8.60
2022-09-15T20:14:29.315Z,8.20
2022-09-15T20:15:29.461Z,7.90
2022-09-15T20:16:29.504Z,7.00
2022-09-15T20:17:29.751Z,6.90
2022-09-15T20:18:29.672Z,7.20
2022-09-15T20:19:29.858Z,7.50
2022-09-15T20:20:30.018Z,6.50
2022-09-15T20:21:48.785Z,6.60
2022-09-15T20:23:31.807Z,1.00
2022-09-15T20:24:32.380Z,1.10
2022-09-15T20:25:32.536Z,2.30
2022-09-15T20:26:32.602Z,1.80
2022-09-15T20:27:32.657Z,2.00
2022-09-15T20:28:32.746Z,3.10
2022-09-15T20:29:32.807Z,3.20
2022-09-15T20:30:33.095Z,3.50
2022-09-15T20:31:32.959Z,3.90
2022-09-15T20:32:33.044Z,3.80
2022-09-15T20:33:33.089Z,4.20
2022-09-15T20:34:33.655Z,6.60
2022-09-15T20:35:33.267Z,6.80
2022-09-15T20:36:33.354Z,4.80
2022-09-15T20:37:37.428Z,3.40
2022-09-15T20:38:33.405Z,3.50
2022-09-15T20:39:33.433Z,3.20
2022-09-15T20:40:33.623Z,3.40
2022-09-15T20:41:33.523Z,2.60
2022-09-15T20:42:33.590Z,3.20
2022-09-15T20:43:33.628Z,2.60
2022-09-15T20:44:33.682Z,2.60
2022-09-15T20:45:37.120Z,3.10
2022-09-15T20:46:33.765Z,3.40
2022-09-15T20:47:33.783Z,3.50
2022-09-15T20:48:33.847Z,3.50
2022-09-15T20:49:33.873Z,3.40
2022-09-15T20:50:38.936Z,3.80
2022-09-15T20:51:38.957Z,3.40
2022-09-15T20:52:38.978Z,3.40
2022-09-15T20:53:39.019Z,3.60
2022-09-15T20:54:39.044Z,4.00
2022-09-15T20:55:39.181Z,3.60
2022-09-15T20:56:39.165Z,3.50
2022-09-15T20:57:39.164Z,3.60
2022-09-15T20:58:39.187Z,4.30
2022-09-15T20:59:39.213Z,4.10
2022-09-15T21:00:39.346Z,4.20
2022-09-15T21:01:39.329Z,4.20
2022-09-15T21:02:39.394Z,4.00
2022-09-15T21:03:39.324Z,4.50
2022-09-15T21:04:39.330Z,4.70
2022-09-15T21:05:39.475Z,4.00
2022-09-15T21:06:39.379Z,4.50
2022-09-15T21:07:39.416Z,4.50
2022-09-15T21:08:39.435Z,4.80
2022-09-15T21:09:39.477Z,4.80
2022-09-15T21:10:39.631Z,4.80
2022-09-15T21:11:39.545Z,4.60
2022-09-15T21:12:39.544Z,5.20
2022-09-15T21:13:39.644Z,4.40
2022-09-15T21:14:39.592Z,4.90
2022-09-15T21:15:39.774Z,5.10
2022-09-15T21:16:39.700Z,5.40
2022-09-15T21:17:39.686Z,5.50
2022-09-15T21:18:39.693Z,4.60
2022-09-15T21:19:39.724Z,4.50
2022-09-15T21:20:39.771Z,4.80
2022-09-15T21:21:45.688Z,4.00
2022-09-15T21:22:45.820Z,4.80
2022-09-15T21:23:45.835Z,4.80
2022-09-15T21:24:45.848Z,4.40
2022-09-15T21:25:45.869Z,4.80
2022-09-15T21:26:45.907Z,4.50
2022-09-15T21:27:45.900Z,4.30
2022-09-15T21:28:45.936Z,5.40
2022-09-15T21:31:39.959Z,4.30
2022-09-15T21:32:40.044Z,5.00
2022-09-15T21:33:39.990Z,4.20
2022-09-15T21:34:40.035Z,4.00
2022-09-15T21:35:40.027Z,4.10
2022-09-15T21:36:40.080Z,4.50
2022-09-15T21:37:40.112Z,4.40
2022-09-15T21:39:45.011Z,4.40
2022-09-15T21:40:45.146Z,4.60
2022-09-15T21:41:45.141Z,4.20
2022-09-15T21:42:45.193Z,4.00
2022-09-15T21:43:45.169Z,4.20
2022-09-15T21:44:45.212Z,4.30
2022-09-15T21:45:45.262Z,4.10
2022-09-15T21:46:45.284Z,4.20
2022-09-15T21:47:45.340Z,4.10
2022-09-15T21:48:45.284Z,4.40
2022-09-15T21:49:45.285Z,4.30
2022-09-15T21:50:45.316Z,4.30
2022-09-15T21:51:45.323Z,3.70
2022-09-15T21:52:45.467Z,4.20
2022-09-15T21:53:45.340Z,4.20
2022-09-15T21:54:45.374Z,4.70
2022-09-15T21:55:45.375Z,4.50
2022-09-15T21:56:45.439Z,4.40
2022-09-15T21:57:45.549Z,3.90
2022-09-15T21:58:45.451Z,4.20
2022-09-15T21:59:45.482Z,4.20
2022-09-15T22:00:45.568Z,4.20
2022-09-15T22:01:45.517Z,4.20
2022-09-15T22:02:45.492Z,4.00
2022-09-15T22:03:45.521Z,3.80
2022-09-15T22:04:45.537Z,4.20
2022-09-15T22:05:45.532Z,3.80
2022-09-15T22:06:45.599Z,3.90
2022-09-15T22:07:45.718Z,4.10
2022-09-15T22:08:45.751Z,3.50
2022-09-15T22:09:45.627Z,3.50
2022-09-15T22:10:45.694Z,3.10
2022-09-15T22:11:45.685Z,3.70
2022-09-15T22:12:45.700Z,3.40
2022-09-15T22:13:45.699Z,3.20
2022-09-15T22:14:45.782Z,3.60
2022-09-15T22:15:45.744Z,3.30
2022-09-15T22:16:45.871Z,3.60
2022-09-15T22:17:45.832Z,3.30
2022-09-15T22:18:45.826Z,4.40
2022-09-15T22:19:45.946Z,3.60
2022-09-15T22:20:45.872Z,3.70
2022-09-15T22:21:45.883Z,4.20
2022-09-15T22:22:45.929Z,3.30
2022-09-15T22:23:46.079Z,3.70
2022-09-15T22:24:46.143Z,4.40
2022-09-15T22:25:45.996Z,3.70
2022-09-15T22:26:46.060Z,3.50
2022-09-15T22:27:46.078Z,3.30
2022-09-15T22:28:46.107Z,3.40
2022-09-15T22:29:46.122Z,3.10
2022-09-15T22:30:46.310Z,3.40
2022-09-15T22:31:46.224Z,4.20
2022-09-15T22:32:46.217Z,4.10
2022-09-15T22:33:46.216Z,3.70
2022-09-15T22:34:46.279Z,3.80
2022-09-15T22:35:46.271Z,3.40
2022-09-15T22:36:46.419Z,3.80
2022-09-15T22:37:46.332Z,3.40
2022-09-15T22:38:46.336Z,3.80
2022-09-15T22:39:58.553Z,3.40
2022-09-15T22:40:46.448Z,3.70
2022-09-15T22:41:46.399Z,3.80
2022-09-15T22:42:46.429Z,3.50
2022-09-15T22:43:46.416Z,3.90
2022-09-15T22:44:46.459Z,3.70
2022-09-15T22:45:46.480Z,3.90
2022-09-15T22:46:46.742Z,3.50
2022-09-15T22:47:46.695Z,4.20
2022-09-15T22:48:46.543Z,4.00
2022-09-15T22:49:46.543Z,3.70
2022-09-15T22:50:46.573Z,3.80
2022-09-15T22:51:46.570Z,3.90
2022-09-15T22:52:51.504Z,3.80
2022-09-15T22:53:51.658Z,3.90
2022-09-15T22:54:51.651Z,3.70
2022-09-15T22:55:51.677Z,4.00
2022-09-15T22:56:51.679Z,4.30
2022-09-15T22:57:51.846Z,3.40
2022-09-15T22:58:51.721Z,4.00
2022-09-15T22:59:51.771Z,4.60
2022-09-15T23:00:51.806Z,3.60
2022-09-15T23:01:51.845Z,3.80
2022-09-15T23:02:51.791Z,4.60
2022-09-15T23:03:51.853Z,5.20
2022-09-15T23:04:51.805Z,5.10
2022-09-15T23:05:56.714Z,5.50
2022-09-15T23:06:56.851Z,4.80
2022-09-15T23:07:56.861Z,6.30
2022-09-15T23:08:56.994Z,5.70
2022-09-15T23:09:56.890Z,5.90
2022-09-15T23:10:56.912Z,5.80
2022-09-15T23:11:56.908Z,5.50
2022-09-15T23:12:56.933Z,5.90
2022-09-15T23:13:56.921Z,6.30
2022-09-15T23:14:56.987Z,5.50
2022-09-15T23:15:56.975Z,5.90
2022-09-15T23:16:56.984Z,5.90
2022-09-15T23:17:57.090Z,5.40
2022-09-15T23:18:57.011Z,5.80
2022-09-15T23:19:57.011Z,6.40
2022-09-15T23:20:57.034Z,6.50
2022-09-15T23:21:57.016Z,5.50
2022-09-15T23:22:57.072Z,6.10
2022-09-15T23:23:57.069Z,6.50
2022-09-15T23:24:57.176Z,6.80
2022-09-15T23:25:57.082Z,6.60
2022-09-15T23:26:57.127Z,6.60
2022-09-15T23:27:57.130Z,6.50
2022-09-15T23:28:57.163Z,7.20
2022-09-15T23:29:57.185Z,6.90
2022-09-15T23:30:57.205Z,7.60
2022-09-15T23:31:57.247Z,7.70
2022-09-15T23:33:02.161Z,7.80
2022-09-15T23:34:02.235Z,8.00
2022-09-15T23:35:02.250Z,7.10
2022-09-15T23:36:02.313Z,7.20
2022-09-15T23:37:02.271Z,6.70
2022-09-15T23:38:02.436Z,7.40
2022-09-15T23:39:02.314Z,7.50
2022-09-15T23:40:07.323Z,7.30
2022-09-15T23:41:07.490Z,7.90
2022-09-15T23:42:07.403Z,7.70
2022-09-15T23:43:07.418Z,7.10
2022-09-15T23:44:07.436Z,7.60
2022-09-15T23:45:07.437Z,7.50
2022-09-15T23:46:07.453Z,7.00
2022-09-15T23:47:07.596Z,8.90
2022-09-15T23:48:07.592Z,7.60
2022-09-15T23:49:07.530Z,8.10
2022-09-15T23:50:07.513Z,8.10
2022-09-15T23:51:07.563Z,7.40
2022-09-15T23:52:07.549Z,8.60
2022-09-15T23:53:07.706Z,7.80
2022-09-15T23:54:07.583Z,7.90
2022-09-15T23:55:07.624Z,7.40
2022-09-15T23:56:07.628Z,7.70
2022-09-15T23:57:07.682Z,7.60
2022-09-15T23:58:07.703Z,7.90
2022-09-15T23:59:07.840Z,8.20
